sensor_id;sensor_type;location;lat;lon;timestamp;pressure;altitude;pressure_sealevel;temperature;humidity
13015;BME280;6573;57.696;11.950;2022-09-12T00:01:35;101575.19;;;13.66;100.00
13015;BME280;6573;57.696;11.950;2022-09-12T00:04:06;101578.69;;;13.74;100.00
13015;BME280;6573;57.696;11.950;2022-09-12T00:06:37;101587.47;;;13.76;100.00
13015;BME280;6573;57.696;11.950;2022-09-12T00:09:09;101581.22;;;13.92;100.00
13015;BME280;6573;57.696;11.950;2022-09-12T00:11:39;101581.28;;;13.82;100.00
13015;BME280;6573;57.696;11.950;2022-09-12T00:14:09;101586.63;;;13.68;100.00
13015;BME280;6573;57.696;11.950;2022-09-12T00:16:38;101572.59;;;13.49;100.00
13015;BME280;6573;57.696;11.950;2022-09-12T00:19:08;101577.00;;;13.40;100.00
13015;BME280;6573;57.696;11.950;2022-09-12T00:21:38;101569.97;;;13.33;100.00
13015;BME280;6573;57.696;11.950;2022-09-12T00:24:09;101573.50;;;13.32;100.00
13015;BME280;6573;57.696;11.950;2022-09-12T00:26:37;101566.44;;;13.28;100.00
13015;BME280;6573;57.696;11.950;2022-09-12T00:29:05;101566.44;;;13.25;100.00
13015;BME280;6573;57.696;11.950;2022-09-12T00:31:34;101556.78;;;13.27;100.00
13015;BME280;6573;57.696;11.950;2022-09-12T00:34:02;101560.28;;;13.23;100.00
13015;BME280;6573;57.696;11.950;2022-09-12T00:36:30;101559.44;;;13.24;100.00
13015;BME280;6573;57.696;11.950;2022-09-12T00:38:59;101557.66;;;13.24;100.00
13015;BME280;6573;57.696;11.950;2022-09-12T00:41:31;101552.41;;;13.20;100.00
13015;BME280;6573;57.696;11.950;2022-09-12T00:44:02;101547.13;;;13.20;100.00
13015;BME280;6573;57.696;11.950;2022-09-12T00:46:51;101552.38;;;13.23;100.00
13015;BME280;6573;57.696;11.950;2022-09-12T00:49:25;101545.31;;;13.29;100.00
13015;BME280;6573;57.696;11.950;2022-09-12T00:51:58;101547.03;;;13.35;100.00
13015;BME280;6573;57.696;11.950;2022-09-12T00:54:33;101549.72;;;13.36;100.00
13015;BME280;6573;57.696;11.950;2022-09-12T00:57:05;101548.78;;;13.48;100.00
13015;BME280;6573;57.696;11.950;2022-09-12T00:59:40;101550.56;;;13.49;100.00
13015;BME280;6573;57.696;11.950;2022-09-12T01:02:11;101542.59;;;13.53;100.00
13015;BME280;6573;57.696;11.950;2022-09-12T01:04:40;101541.69;;;13.62;100.00
13015;BME280;6573;57.696;11.950;2022-09-12T01:07:09;101543.50;;;13.54;100.00
13015;BME280;6573;57.696;11.950;2022-09-12T01:09:38;101555.81;;;13.55;100.00
13015;BME280;6573;57.696;11.950;2022-09-12T01:12:11;101549.69;;;13.41;100.00
13015;BME280;6573;57.696;11.950;2022-09-12T01:14:41;101552.34;;;13.41;100.00
13015;BME280;6573;57.696;11.950;2022-09-12T01:17:11;101554.09;;;13.43;100.00
13015;BME280;6573;57.696;11.950;2022-09-12T01:22:52;101552.34;;;13.44;100.00
13015;BME280;6573;57.696;11.950;2022-09-12T01:25:30;101538.16;;;13.60;100.00
13015;BME280;6573;57.696;11.950;2022-09-12T01:28:26;101547.03;;;13.41;100.00
13015;BME280;6573;57.696;11.950;2022-09-12T01:31:05;101543.56;;;13.27;100.00
13015;BME280;6573;57.696;11.950;2022-09-12T01:33:48;101539.19;;;13.12;100.00
13015;BME280;6573;57.696;11.950;2022-09-12T01:36:37;101545.34;;;13.16;100.00
13015;BME280;6573;57.696;11.950;2022-09-12T01:39:14;101534.75;;;13.25;100.00
13015;BME280;6573;57.696;11.950;2022-09-12T01:41:50;101539.13;;;13.33;100.00
13015;BME280;6573;57.696;11.950;2022-09-12T01:44:24;101540.00;;;13.40;100.00
13015;BME280;6573;57.696;11.950;2022-09-12T01:47:01;101545.28;;;13.43;100.00
13015;BME280;6573;57.696;11.950;2022-09-12T01:49:37;101531.16;;;13.50;100.00
13015;BME280;6573;57.696;11.950;2022-09-12T01:52:13;101527.63;;;13.51;100.00
13015;BME280;6573;57.696;11.950;2022-09-12T01:54:48;101529.41;;;13.52;100.00
13015;BME280;6573;57.696;11.950;2022-09-12T01:57:23;101527.69;;;13.39;100.00
13015;BME280;6573;57.696;11.950;2022-09-12T01:59:58;101533.81;;;13.47;100.00
13015;BME280;6573;57.696;11.950;2022-09-12T02:02:33;101524.13;;;13.46;100.00
13015;BME280;6573;57.696;11.950;2022-09-12T02:05:05;101525.88;;;13.48;100.00
13015;BME280;6573;57.696;11.950;2022-09-12T02:07:37;101529.41;;;13.52;100.00
13015;BME280;6573;57.696;11.950;2022-09-12T02:10:09;101534.66;;;13.55;100.00
13015;BME280;6573;57.696;11.950;2022-09-12T02:12:43;101527.59;;;13.57;100.00
13015;BME280;6573;57.696;11.950;2022-09-12T02:15:16;101531.09;;;13.62;100.00
13015;BME280;6573;57.696;11.950;2022-09-12T02:17:49;101529.38;;;13.61;100.00
13015;BME280;6573;57.696;11.950;2022-09-12T02:20:21;101527.59;;;13.60;100.00
13015;BME280;6573;57.696;11.950;2022-09-12T02:23:13;101524.09;;;13.58;100.00
13015;BME280;6573;57.696;11.950;2022-09-12T02:25:46;101517.88;;;13.62;100.00
13015;BME280;6573;57.696;11.950;2022-09-12T02:28:18;101525.81;;;13.68;100.00
13015;BME280;6573;57.696;11.950;2022-09-12T02:30:55;101517.84;;;13.74;100.00
13015;BME280;6573;57.696;11.950;2022-09-12T02:33:31;101521.34;;;13.84;100.00
13015;BME280;6573;57.696;11.950;2022-09-12T02:36:09;101532.81;;;13.84;100.00
13015;BME280;6573;57.696;11.950;2022-09-12T02:38:42;101529.22;;;13.91;100.00
13015;BME280;6573;57.696;11.950;2022-09-12T02:41:13;101532.75;;;13.93;100.00
13015;BME280;6573;57.696;11.950;2022-09-12T02:43:42;101518.66;;;13.88;100.00
13015;BME280;6573;57.696;11.950;2022-09-12T02:46:15;101523.09;;;13.83;100.00
13015;BME280;6573;57.696;11.950;2022-09-12T02:48:47;101526.63;;;13.84;100.00
13015;BME280;6573;57.696;11.950;2022-09-12T02:51:15;101515.16;;;13.86;100.00
13015;BME280;6573;57.696;11.950;2022-09-12T02:53:49;101514.25;;;13.89;100.00
13015;BME280;6573;57.696;11.950;2022-09-12T02:56:22;101509.81;;;13.92;100.00
13015;BME280;6573;57.696;11.950;2022-09-12T02:58:52;101513.31;;;13.97;100.00
13015;BME280;6573;57.696;11.950;2022-09-12T03:01:29;101509.81;;;13.92;100.00
13015;BME280;6573;57.696;11.950;2022-09-12T03:07:13;101506.25;;;13.99;100.00
13015;BME280;6573;57.696;11.950;2022-09-12T03:09:46;101494.78;;;13.97;100.00
13015;BME280;6573;57.696;11.950;2022-09-12T03:12:31;101504.50;;;13.97;100.00
13015;BME280;6573;57.696;11.950;2022-09-12T03:15:18;101501.81;;;14.04;100.00
13015;BME280;6573;57.696;11.950;2022-09-12T03:18:00;101493.88;;;14.04;100.00
13015;BME280;6573;57.696;11.950;2022-09-12T03:20:43;101493.00;;;14.05;100.00
13015;BME280;6573;57.696;11.950;2022-09-12T03:23:20;101500.94;;;14.05;100.00
13015;BME280;6573;57.696;11.950;2022-09-12T03:25:56;101494.72;;;14.11;100.00
13015;BME280;6573;57.696;11.950;2022-09-12T03:28:26;101495.56;;;14.17;100.00
13015;BME280;6573;57.696;11.950;2022-09-12T03:30:54;101500.81;;;14.23;100.00
13015;BME280;6573;57.696;11.950;2022-09-12T03:33:25;101503.44;;;14.31;100.00
13015;BME280;6573;57.696;11.950;2022-09-12T03:35:53;101496.34;;;14.36;100.00
13015;BME280;6573;57.696;11.950;2022-09-12T03:38:23;101484.88;;;14.36;100.00
13015;BME280;6573;57.696;11.950;2022-09-12T03:40:51;101488.38;;;14.38;100.00
13015;BME280;6573;57.696;11.950;2022-09-12T03:43:20;101481.28;;;14.43;100.00
13015;BME280;6573;57.696;11.950;2022-09-12T03:45:50;101485.75;;;14.38;100.00
13015;BME280;6573;57.696;11.950;2022-09-12T03:48:19;101486.66;;;14.34;100.00
13015;BME280;6573;57.696;11.950;2022-09-12T03:50:47;101488.41;;;14.30;100.00
13015;BME280;6573;57.696;11.950;2022-09-12T03:53:16;101486.66;;;14.27;100.00
13015;BME280;6573;57.696;11.950;2022-09-12T03:55:45;101489.34;;;14.23;100.00
13015;BME280;6573;57.696;11.950;2022-09-12T03:58:13;101469.09;;;14.17;100.00
13015;BME280;6573;57.696;11.950;2022-09-12T04:00:43;101482.22;;;14.29;100.00
13015;BME280;6573;57.696;11.950;2022-09-12T04:03:11;101487.50;;;14.34;100.00
13015;BME280;6573;57.696;11.950;2022-09-12T04:05:39;101484.88;;;14.33;100.00
13015;BME280;6573;57.696;11.950;2022-09-12T04:08:07;101486.69;;;14.31;100.00
13015;BME280;6573;57.696;11.950;2022-09-12T04:10:35;101480.47;;;14.30;100.00
13015;BME280;6573;57.696;11.950;2022-09-12T04:13:05;101481.38;;;14.27;100.00
13015;BME280;6573;57.696;11.950;2022-09-12T04:15:35;101491.97;;;14.31;100.00
13015;BME280;6573;57.696;11.950;2022-09-12T04:18:03;101483.13;;;14.30;100.00
13015;BME280;6573;57.696;11.950;2022-09-12T04:20:32;101487.53;;;14.33;100.00
13015;BME280;6573;57.696;11.950;2022-09-12T04:23:00;101478.75;;;14.31;100.00
13015;BME280;6573;57.696;11.950;2022-09-12T04:25:28;101481.38;;;14.34;100.00
13015;BME280;6573;57.696;11.950;2022-09-12T04:27:57;101482.25;;;14.28;100.00
13015;BME280;6573;57.696;11.950;2022-09-12T04:30:26;101481.41;;;14.21;100.00
13015;BME280;6573;57.696;11.950;2022-09-12T04:32:55;101483.19;;;14.19;100.00
13015;BME280;6573;57.696;11.950;2022-09-12T04:35:23;101476.16;;;14.15;100.00
13015;BME280;6573;57.696;11.950;2022-09-12T04:37:51;101478.81;;;14.12;100.00
13015;BME280;6573;57.696;11.950;2022-09-12T04:40:20;101476.19;;;14.09;100.00
13015;BME280;6573;57.696;11.950;2022-09-12T04:42:48;101470.91;;;14.09;100.00
13015;BME280;6573;57.696;11.950;2022-09-12T04:45:17;101484.16;;;14.05;100.00
13015;BME280;6573;57.696;11.950;2022-09-12T04:47:46;101478.81;;;14.12;100.00
13015;BME280;6573;57.696;11.950;2022-09-12T04:50:15;101465.66;;;14.06;100.00
13015;BME280;6573;57.696;11.950;2022-09-12T04:52:48;101464.78;;;14.03;100.00
13015;BME280;6573;57.696;11.950;2022-09-12T04:55:16;101477.97;;;14.07;100.00
13015;BME280;6573;57.696;11.950;2022-09-12T04:57:45;101472.69;;;14.04;100.00
13015;BME280;6573;57.696;11.950;2022-09-12T05:00:13;101468.34;;;13.99;100.00
13015;BME280;6573;57.696;11.950;2022-09-12T05:02:41;101469.16;;;14.11;100.00
13015;BME280;6573;57.696;11.950;2022-09-12T05:05:11;101449.81;;;13.97;100.00
13015;BME280;6573;57.696;11.950;2022-09-12T05:07:39;101461.13;;;14.20;100.00
13015;BME280;6573;57.696;11.950;2022-09-12T05:10:11;101472.66;;;14.16;100.00
13015;BME280;6573;57.696;11.950;2022-09-12T05:12:39;101465.50;;;14.21;100.00
13015;BME280;6573;57.696;11.950;2022-09-12T05:15:08;101471.78;;;14.13;100.00
13015;BME280;6573;57.696;11.950;2022-09-12T05:17:36;101473.53;;;14.12;100.00
13015;BME280;6573;57.696;11.950;2022-09-12T05:20:05;101476.09;;;14.24;100.00
13015;BME280;6573;57.696;11.950;2022-09-12T05:22:36;101469.06;;;14.20;100.00
13015;BME280;6573;57.696;11.950;2022-09-12T05:25:10;101468.19;;;14.23;100.00
13015;BME280;6573;57.696;11.950;2022-09-12T05:27:38;101467.31;;;14.19;100.00
13015;BME280;6573;57.696;11.950;2022-09-12T05:30:08;101465.50;;;14.21;100.00
13015;BME280;6573;57.696;11.950;2022-09-12T05:32:37;101467.22;;;14.35;100.00
13015;BME280;6573;57.696;11.950;2022-09-12T05:35:06;101474.28;;;14.36;100.00
13015;BME280;6573;57.696;11.950;2022-09-12T05:37:35;101472.50;;;14.41;100.00
13015;BME280;6573;57.696;11.950;2022-09-12T05:40:05;101462.66;;;14.55;100.00
13015;BME280;6573;57.696;11.950;2022-09-12T05:42:34;101463.47;;;14.63;100.00
13015;BME280;6573;57.696;11.950;2022-09-12T05:45:02;101463.41;;;14.69;100.00
13015;BME280;6573;57.696;11.950;2022-09-12T05:47:31;101463.47;;;14.63;100.00
13015;BME280;6573;57.696;11.950;2022-09-12T05:49:59;101466.03;;;14.69;100.00
13015;BME280;6573;57.696;11.950;2022-09-12T05:52:28;101463.47;;;14.60;100.00
13015;BME280;6573;57.696;11.950;2022-09-12T05:54:58;101467.09;;;14.53;100.00
13015;BME280;6573;57.696;11.950;2022-09-12T05:57:26;101472.31;;;14.59;100.00
13015;BME280;6573;57.696;11.950;2022-09-12T05:59:54;101474.09;;;14.60;100.00
13015;BME280;6573;57.696;11.950;2022-09-12T06:02:23;101474.94;;;14.62;100.00
13015;BME280;6573;57.696;11.950;2022-09-12T06:04:52;101477.66;;;14.56;100.00
13015;BME280;6573;57.696;11.950;2022-09-12T06:07:20;101482.91;;;14.59;100.00
13015;BME280;6573;57.696;11.950;2022-09-12T06:09:48;101479.38;;;14.60;100.00
13015;BME280;6573;57.696;11.950;2022-09-12T06:12:18;101481.09;;;14.64;100.00
13015;BME280;6573;57.696;11.950;2022-09-12T06:14:46;101480.19;;;14.66;100.00
13015;BME280;6573;57.696;11.950;2022-09-12T06:17:15;101470.47;;;14.70;100.00
13015;BME280;6573;57.696;11.950;2022-09-12T06:19:44;101473.06;;;14.76;100.00
13015;BME280;6573;57.696;11.950;2022-09-12T06:22:12;101477.44;;;14.80;100.00
13015;BME280;6573;57.696;11.950;2022-09-12T06:24:41;101477.41;;;14.83;100.00
13015;BME280;6573;57.696;11.950;2022-09-12T06:27:09;101482.63;;;14.89;100.00
13015;BME280;6573;57.696;11.950;2022-09-12T06:29:39;101479.06;;;14.93;100.00
13015;BME280;6573;57.696;11.950;2022-09-12T06:32:07;101479.03;;;14.98;100.00
13015;BME280;6573;57.696;11.950;2022-09-12T06:34:37;101477.19;;;15.01;100.00
13015;BME280;6573;57.696;11.950;2022-09-12T06:37:05;101471.81;;;15.10;100.00
13015;BME280;6573;57.696;11.950;2022-09-12T06:39:34;101480.53;;;15.18;100.00
13015;BME280;6573;57.696;11.950;2022-09-12T06:42:04;101484.13;;;15.14;100.00
13015;BME280;6573;57.696;11.950;2022-09-12T06:44:32;101478.84;;;15.14;100.00
13015;BME280;6573;57.696;11.950;2022-09-12T06:47:02;101482.34;;;15.16;100.00
13015;BME280;6573;57.696;11.950;2022-09-12T06:49:31;101478.72;;;15.23;100.00
13015;BME280;6573;57.696;11.950;2022-09-12T06:51:59;101475.13;;;15.30;100.00
13015;BME280;6573;57.696;11.950;2022-09-12T06:54:28;101468.91;;;15.33;100.00
13015;BME280;6573;57.696;11.950;2022-09-12T06:56:56;101473.19;;;15.44;100.00
13015;BME280;6573;57.696;11.950;2022-09-12T06:59:24;101474.84;;;15.54;100.00
13015;BME280;6573;57.696;11.950;2022-09-12T07:01:53;101477.41;;;15.61;100.00
13015;BME280;6573;57.696;11.950;2022-09-12T07:04:24;101479.16;;;15.65;100.00
13015;BME280;6573;57.696;11.950;2022-09-12T07:06:52;101469.31;;;15.73;100.00
13015;BME280;6573;57.696;11.950;2022-09-12T07:09:20;101467.41;;;15.81;100.00
13015;BME280;6573;57.696;11.950;2022-09-12T07:11:48;101471.63;;;15.95;100.00
13015;BME280;6573;57.696;11.950;2022-09-12T07:14:16;101469.84;;;15.97;100.00
13015;BME280;6573;57.696;11.950;2022-09-12T07:16:45;101467.03;;;16.08;100.00
13015;BME280;6573;57.696;11.950;2022-09-12T07:19:13;101466.91;;;16.17;100.00
13015;BME280;6573;57.696;11.950;2022-09-12T07:21:42;101458.81;;;16.25;100.00
13015;BME280;6573;57.696;11.950;2022-09-12T07:24:11;101463.09;;;16.33;100.00
13015;BME280;6573;57.696;11.950;2022-09-12T07:26:39;101462.09;;;16.40;100.00
13015;BME280;6573;57.696;11.950;2022-09-12T07:29:12;101455.75;;;16.47;100.00
13015;BME280;6573;57.696;11.950;2022-09-12T07:32:02;101462.78;;;16.54;100.00
13015;BME280;6573;57.696;11.950;2022-09-12T07:34:32;101454.78;;;16.56;100.00
13015;BME280;6573;57.696;11.950;2022-09-12T07:37:02;101464.53;;;16.55;100.00
13015;BME280;6573;57.696;11.950;2022-09-12T07:39:30;101459.16;;;16.58;100.00
13015;BME280;6573;57.696;11.950;2022-09-12T07:41:58;101457.34;;;16.60;100.00
13015;BME280;6573;57.696;11.950;2022-09-12T07:44:27;101466.03;;;16.71;100.00
13015;BME280;6573;57.696;11.950;2022-09-12T07:46:55;101459.75;;;16.77;100.00
13015;BME280;6573;57.696;11.950;2022-09-12T07:49:24;101461.50;;;16.76;100.00
13015;BME280;6573;57.696;11.950;2022-09-12T07:51:53;101460.59;;;16.77;100.00
13015;BME280;6573;57.696;11.950;2022-09-12T07:54:22;101458.78;;;16.79;100.00
13015;BME280;6573;57.696;11.950;2022-09-12T07:56:50;101450.84;;;16.78;100.00
13015;BME280;6573;57.696;11.950;2022-09-12T07:59:19;101453.47;;;16.79;100.00
13015;BME280;6573;57.696;11.950;2022-09-12T08:02:10;101446.41;;;16.78;100.00
13015;BME280;6573;57.696;11.950;2022-09-12T08:04:43;101446.34;;;16.81;100.00
13015;BME280;6573;57.696;11.950;2022-09-12T08:07:11;101454.19;;;16.89;100.00
13015;BME280;6573;57.696;11.950;2022-09-12T08:09:41;101446.19;;;16.91;100.00
13015;BME280;6573;57.696;11.950;2022-09-12T08:12:09;101449.63;;;16.96;100.00
13015;BME280;6573;57.696;11.950;2022-09-12T08:14:37;101444.25;;;16.99;100.00
13015;BME280;6573;57.696;11.950;2022-09-12T08:17:06;101443.22;;;17.06;100.00
13015;BME280;6573;57.696;11.950;2022-09-12T08:19:34;101445.75;;;17.12;100.00
13015;BME280;6573;57.696;11.950;2022-09-12T08:22:02;101444.91;;;17.10;100.00
13015;BME280;6573;57.696;11.950;2022-09-12T08:24:31;101449.09;;;17.23;100.00
13015;BME280;6573;57.696;11.950;2022-09-12T08:27:01;101447.09;;;17.34;100.00
13015;BME280;6573;57.696;11.950;2022-09-12T08:29:29;101446.91;;;17.43;100.00
13015;BME280;6573;57.696;11.950;2022-09-12T08:31:57;101442.47;;;17.42;100.00
13015;BME280;6573;57.696;11.950;2022-09-12T08:34:26;101439.72;;;17.46;100.00
13015;BME280;6573;57.696;11.950;2022-09-12T08:36:54;101444.53;;;17.72;100.00
13015;BME280;6573;57.696;11.950;2022-09-12T08:39:22;101432.69;;;17.85;100.00
13015;BME280;6573;57.696;11.950;2022-09-12T08:41:57;101437.09;;;17.86;100.00
13015;BME280;6573;57.696;11.950;2022-09-12T08:44:42;101438.63;;;17.96;100.00
13015;BME280;6573;57.696;11.950;2022-09-12T08:47:19;101441.41;;;17.93;100.00
13015;BME280;6573;57.696;11.950;2022-09-12T08:50:05;101436.38;;;17.80;100.00
13015;BME280;6573;57.696;11.950;2022-09-12T08:52:41;101441.84;;;17.74;100.00
13015;BME280;6573;57.696;11.950;2022-09-12T08:55:23;101437.09;;;17.86;100.00
13015;BME280;6573;57.696;11.950;2022-09-12T08:57:52;101437.16;;;18.22;100.00
13015;BME280;6573;57.696;11.950;2022-09-12T09:00:22;101432.00;;;18.51;100.00
13015;BME280;6573;57.696;11.950;2022-09-12T09:06:08;101427.28;;;18.94;100.00
13015;BME280;6573;57.696;11.950;2022-09-12T09:08:54;101430.97;;;18.90;100.00
13015;BME280;6573;57.696;11.950;2022-09-12T09:11:56;101417.75;;;18.86;100.00
13015;BME280;6573;57.696;11.950;2022-09-12T09:14:39;101428.88;;;19.01;100.00
13015;BME280;6573;57.696;11.950;2022-09-12T09:17:19;101425.03;;;19.11;100.00
13015;BME280;6573;57.696;11.950;2022-09-12T09:19:55;101425.41;;;19.28;100.00
13015;BME280;6573;57.696;11.950;2022-09-12T09:22:35;101421.59;;;19.38;100.00
13015;BME280;6573;57.696;11.950;2022-09-12T09:25:09;101424.09;;;19.45;100.00
13015;BME280;6573;57.696;11.950;2022-09-12T09:27:42;101426.03;;;19.40;100.00
13015;BME280;6573;57.696;11.950;2022-09-12T09:30:15;101429.31;;;19.48;100.00
13015;BME280;6573;57.696;11.950;2022-09-12T09:32:49;101424.19;;;19.42;100.00
13015;BME280;6573;57.696;11.950;2022-09-12T09:35:25;101433.50;;;19.25;100.00
13015;BME280;6573;57.696;11.950;2022-09-12T09:38:14;101426.69;;;19.15;100.00
13015;BME280;6573;57.696;11.950;2022-09-12T09:40:56;101432.69;;;19.23;100.00
13015;BME280;6573;57.696;11.950;2022-09-12T09:43:27;101425.34;;;19.31;100.00
13015;BME280;6573;57.696;11.950;2022-09-12T09:45:56;101424.50;;;19.29;100.00
13015;BME280;6573;57.696;11.950;2022-09-12T09:48:29;101414.09;;;19.20;100.00
13015;BME280;6573;57.696;11.950;2022-09-12T09:51:01;101418.56;;;19.20;100.00
13015;BME280;6573;57.696;11.950;2022-09-12T09:53:35;101423.09;;;19.16;100.00
13015;BME280;6573;57.696;11.950;2022-09-12T09:56:08;101415.75;;;19.24;100.00
13015;BME280;6573;57.696;11.950;2022-09-12T09:58:38;101415.34;;;19.40;100.00
13015;BME280;6573;57.696;11.950;2022-09-12T10:01:13;101426.41;;;19.57;100.00
13015;BME280;6573;57.696;11.950;2022-09-12T10:03:48;101427.50;;;19.50;100.00
13015;BME280;6573;57.696;11.950;2022-09-12T10:06:28;101423.97;;;19.48;100.00
13015;BME280;6573;57.696;11.950;2022-09-12T10:09:09;101427.50;;;19.50;100.00
13015;BME280;6573;57.696;11.950;2022-09-12T10:11:44;101421.38;;;19.46;100.00
13015;BME280;6573;57.696;11.950;2022-09-12T10:14:37;101426.22;;;19.32;100.00
13015;BME280;6573;57.696;11.950;2022-09-12T10:17:25;101424.50;;;19.29;100.00
13015;BME280;6573;57.696;11.950;2022-09-12T10:20:02;101414.28;;;19.14;100.00
13015;BME280;6573;57.696;11.950;2022-09-12T10:22:48;101419.25;;;19.26;100.00
13015;BME280;6573;57.696;11.950;2022-09-12T10:25:17;101422.59;;;19.34;100.00
13015;BME280;6573;57.696;11.950;2022-09-12T10:27:52;101417.50;;;19.25;100.00
13015;BME280;6573;57.696;11.950;2022-09-12T10:30:23;101422.84;;;19.25;100.00
13015;BME280;6573;57.696;11.950;2022-09-12T10:32:56;101412.81;;;19.33;100.00
13015;BME280;6573;57.696;11.950;2022-09-12T10:35:30;101413.22;;;19.51;100.00
13015;BME280;6573;57.696;11.950;2022-09-12T10:38:12;101410.41;;;19.55;100.00
13015;BME280;6573;57.696;11.950;2022-09-12T10:40:43;101400.69;;;19.53;100.00
13015;BME280;6573;57.696;11.950;2022-09-12T10:43:17;101401.66;;;19.50;100.00
13015;BME280;6573;57.696;11.950;2022-09-12T10:45:45;101405.97;;;19.56;100.00
13015;BME280;6573;57.696;11.950;2022-09-12T10:48:26;101414.03;;;19.54;100.00
13015;BME280;6573;57.696;11.950;2022-09-12T10:50:57;101408.44;;;19.62;100.00
13015;BME280;6573;57.696;11.950;2022-09-12T10:53:27;101406.47;;;19.68;100.00
13015;BME280;6573;57.696;11.950;2022-09-12T10:56:07;101404.66;;;19.69;100.00
13015;BME280;6573;57.696;11.950;2022-09-12T10:58:50;101405.41;;;19.74;100.00
13015;BME280;6573;57.696;11.950;2022-09-12T11:01:32;101409.84;;;19.73;100.00
13015;BME280;6573;57.696;11.950;2022-09-12T11:04:15;101409.19;;;19.67;100.00
13015;BME280;6573;57.696;11.950;2022-09-12T11:06:54;101410.16;;;19.64;100.00
13015;BME280;6573;57.696;11.950;2022-09-12T11:09:29;101405.69;;;19.65;100.00
13015;BME280;6573;57.696;11.950;2022-09-12T11:12:08;101409.56;;;19.55;100.00
13015;BME280;6573;57.696;11.950;2022-09-12T11:14:50;101407.16;;;19.46;100.00
13015;BME280;6573;57.696;11.950;2022-09-12T11:17:32;101419.50;;;19.50;100.00
13015;BME280;6573;57.696;11.950;2022-09-12T11:20:34;101408.25;;;19.38;100.00
13015;BME280;6573;57.696;11.950;2022-09-12T11:26:23;101412.34;;;19.50;100.00
13015;BME280;6573;57.696;11.950;2022-09-12T11:29:03;101414.16;;;19.50;100.00
13015;BME280;6573;57.696;11.950;2022-09-12T11:31:50;101411.75;;;19.41;100.00
13015;BME280;6573;57.696;11.950;2022-09-12T11:34:29;101413.22;;;19.51;100.00
13015;BME280;6573;57.696;11.950;2022-09-12T11:37:16;101403.13;;;19.60;100.00
13015;BME280;6573;57.696;11.950;2022-09-12T11:39:47;101412.75;;;19.66;100.00
13015;BME280;6573;57.696;11.950;2022-09-12T11:42:28;101405.00;;;19.58;100.00
13015;BME280;6573;57.696;11.950;2022-09-12T11:45:03;101396.75;;;19.66;100.00
13015;BME280;6573;57.696;11.950;2022-09-12T11:47:38;101402.88;;;19.69;100.00
13015;BME280;6573;57.696;11.950;2022-09-12T11:50:19;101402.28;;;19.60;100.00
13015;BME280;6573;57.696;11.950;2022-09-12T11:52:50;101402.00;;;19.69;100.00
13015;BME280;6573;57.696;11.950;2022-09-12T11:55:23;101402.91;;;19.68;100.00
13015;BME280;6573;57.696;11.950;2022-09-12T11:57:56;101406.47;;;19.68;100.00
13015;BME280;6573;57.696;11.950;2022-09-12T12:00:27;101400.88;;;19.76;100.00
13015;BME280;6573;57.696;11.950;2022-09-12T12:03:03;101403.69;;;19.71;100.00
13015;BME280;6573;57.696;11.950;2022-09-12T12:05:41;101401.78;;;19.75;100.00
13015;BME280;6573;57.696;11.950;2022-09-12T12:08:10;101396.19;;;19.84;100.00
13015;BME280;6573;57.696;11.950;2022-09-12T12:10:42;101394.25;;;19.89;100.00
13015;BME280;6573;57.696;11.950;2022-09-12T12:13:18;101397.25;;;19.78;100.00
13015;BME280;6573;57.696;11.950;2022-09-12T12:15:51;101393.59;;;19.81;100.00
13015;BME280;6573;57.696;11.950;2022-09-12T12:18:22;101394.16;;;19.92;100.00
13015;BME280;6573;57.696;11.950;2022-09-12T12:20:52;101394.34;;;19.86;100.00
13015;BME280;6573;57.696;11.950;2022-09-12T12:23:23;101383.66;;;19.86;100.00
13015;BME280;6573;57.696;11.950;2022-09-12T12:25:53;101378.63;;;19.77;100.00
13015;BME280;6573;57.696;11.950;2022-09-12T12:29:00;101382.19;;;19.76;100.00
13015;BME280;6573;57.696;11.950;2022-09-12T12:31:29;101380.25;;;19.81;100.00
13015;BME280;6573;57.696;11.950;2022-09-12T12:34:04;101382.84;;;19.84;100.00
13015;BME280;6573;57.696;11.950;2022-09-12T12:36:46;101380.06;;;19.87;100.00
13015;BME280;6573;57.696;11.950;2022-09-12T12:46:02;101360.56;;;19.57;100.00
13015;BME280;6573;57.696;11.950;2022-09-12T12:48:56;101354.25;;;19.60;100.00
13015;BME280;6573;57.696;11.950;2022-09-12T12:51:32;101354.25;;;19.60;100.00
13015;BME280;6573;57.696;11.950;2022-09-12T12:54:03;101354.03;;;19.66;100.00
13015;BME280;6573;57.696;11.950;2022-09-12T12:56:40;101357.75;;;19.62;100.00
13015;BME280;6573;57.696;11.950;2022-09-12T12:59:16;101361.22;;;19.64;100.00
13015;BME280;6573;57.696;11.950;2022-09-12T13:01:51;101343.44;;;19.63;100.00
13015;BME280;6573;57.696;11.950;2022-09-12T13:04:23;101333.34;;;19.72;100.00
13015;BME280;6573;57.696;11.950;2022-09-12T13:06:58;101337.44;;;19.84;100.00
13015;BME280;6573;57.696;11.950;2022-09-12T13:09:36;101322.41;;;19.80;100.00
13015;BME280;6573;57.696;11.950;2022-09-12T13:12:07;101328.31;;;19.91;100.00
13015;BME280;6573;57.696;11.950;2022-09-12T13:14:51;101316.56;;;19.95;100.00
13015;BME280;6573;57.696;11.950;2022-09-12T13:17:38;101316.56;;;19.95;100.00
13015;BME280;6573;57.696;11.950;2022-09-12T13:20:18;101312.19;;;19.94;100.00
13015;BME280;6573;57.696;11.950;2022-09-12T13:22:56;101303.03;;;20.01;100.00
13015;BME280;6573;57.696;11.950;2022-09-12T13:25:30;101302.81;;;20.07;100.00
13015;BME280;6573;57.696;11.950;2022-09-12T13:28:04;101303.84;;;20.03;100.00
13015;BME280;6573;57.696;11.950;2022-09-12T13:30:35;101301.91;;;20.08;100.00